sensor_id;sensor_type;location;lat;lon;timestamp;temperature;humidity
52565;DHT22;38460;53.106;7.004;2023-04-21T00:00:23;8.00;99.90
52565;DHT22;38460;53.106;7.004;2023-04-21T00:02:49;8.00;99.90
52565;DHT22;38460;53.106;7.004;2023-04-21T00:05:14;8.00;99.90
52565;DHT22;38460;53.106;7.004;2023-04-21T00:07:40;8.00;99.90
52565;DHT22;38460;53.106;7.004;2023-04-21T00:10:10;8.00;99.90
52565;DHT22;38460;53.106;7.004;2023-04-21T00:12:36;8.00;99.90
52565;DHT22;38460;53.106;7.004;2023-04-21T00:15:03;8.00;99.90
52565;DHT22;38460;53.106;7.004;2023-04-21T00:17:29;8.00;99.90
52565;DHT22;38460;53.106;7.004;2023-04-21T00:19:55;8.00;99.90
52565;DHT22;38460;53.106;7.004;2023-04-21T00:22:21;8.00;99.90
52565;DHT22;38460;53.106;7.004;2023-04-21T00:24:47;8.00;99.90
52565;DHT22;38460;53.106;7.004;2023-04-21T00:27:13;8.00;99.90
52565;DHT22;38460;53.106;7.004;2023-04-21T00:29:40;8.00;99.90
52565;DHT22;38460;53.106;7.004;2023-04-21T00:32:06;8.00;99.90
52565;DHT22;38460;53.106;7.004;2023-04-21T00:34:34;8.00;99.90
52565;DHT22;38460;53.106;7.004;2023-04-21T00:37:00;7.90;99.90
52565;DHT22;38460;53.106;7.004;2023-04-21T00:39:26;7.90;99.90
52565;DHT22;38460;53.106;7.004;2023-04-21T00:41:51;7.90;99.90
52565;DHT22;38460;53.106;7.004;2023-04-21T00:44:17;7.90;99.90
52565;DHT22;38460;53.106;7.004;2023-04-21T00:46:43;7.90;99.90
52565;DHT22;38460;53.106;7.004;2023-04-21T00:49:08;7.80;99.90
52565;DHT22;38460;53.106;7.004;2023-04-21T00:51:35;7.90;99.90
52565;DHT22;38460;53.106;7.004;2023-04-21T00:54:03;7.80;99.90
52565;DHT22;38460;53.106;7.004;2023-04-21T00:56:31;7.80;99.90
52565;DHT22;38460;53.106;7.004;2023-04-21T00:58:58;7.80;99.90
52565;DHT22;38460;53.106;7.004;2023-04-21T01:01:24;7.80;99.90
52565;DHT22;38460;53.106;7.004;2023-04-21T01:03:50;7.80;99.90
52565;DHT22;38460;53.106;7.004;2023-04-21T01:06:17;7.80;99.90
52565;DHT22;38460;53.106;7.004;2023-04-21T01:08:45;7.80;99.90
52565;DHT22;38460;53.106;7.004;2023-04-21T01:11:12;7.80;99.90
52565;DHT22;38460;53.106;7.004;2023-04-21T01:13:39;7.70;99.90
52565;DHT22;38460;53.106;7.004;2023-04-21T01:16:06;7.70;99.90
52565;DHT22;38460;53.106;7.004;2023-04-21T01:18:33;7.70;99.90
52565;DHT22;38460;53.106;7.004;2023-04-21T01:20:59;7.70;99.90
52565;DHT22;38460;53.106;7.004;2023-04-21T01:23:25;7.70;99.90
52565;DHT22;38460;53.106;7.004;2023-04-21T01:25:52;7.70;99.90
52565;DHT22;38460;53.106;7.004;2023-04-21T01:28:27;7.70;99.90
52565;DHT22;38460;53.106;7.004;2023-04-21T01:30:53;7.70;99.90
52565;DHT22;38460;53.106;7.004;2023-04-21T01:33:19;7.70;99.90
52565;DHT22;38460;53.106;7.004;2023-04-21T01:35:46;7.70;99.90
52565;DHT22;38460;53.106;7.004;2023-04-21T01:38:12;7.70;99.90
52565;DHT22;38460;53.106;7.004;2023-04-21T01:40:38;7.60;99.90
52565;DHT22;38460;53.106;7.004;2023-04-21T01:43:06;7.60;99.90
52565;DHT22;38460;53.106;7.004;2023-04-21T01:45:32;7.60;99.90
52565;DHT22;38460;53.106;7.004;2023-04-21T01:47:57;7.60;99.90
52565;DHT22;38460;53.106;7.004;2023-04-21T01:50:23;7.60;99.90
52565;DHT22;38460;53.106;7.004;2023-04-21T01:52:49;7.60;99.90
52565;DHT22;38460;53.106;7.004;2023-04-21T01:55:15;7.60;99.90
52565;DHT22;38460;53.106;7.004;2023-04-21T01:57:40;7.60;99.90
52565;DHT22;38460;53.106;7.004;2023-04-21T02:00:07;7.60;99.90
52565;DHT22;38460;53.106;7.004;2023-04-21T02:02:33;7.60;99.90
52565;DHT22;38460;53.106;7.004;2023-04-21T02:04:59;7.50;99.90
52565;DHT22;38460;53.106;7.004;2023-04-21T02:07:25;7.50;99.90
52565;DHT22;38460;53.106;7.004;2023-04-21T02:09:50;7.50;99.90
52565;DHT22;38460;53.106;7.004;2023-04-21T02:12:16;7.50;99.90
52565;DHT22;38460;53.106;7.004;2023-04-21T02:14:42;7.50;99.90
52565;DHT22;38460;53.106;7.004;2023-04-21T02:17:07;7.50;99.90
52565;DHT22;38460;53.106;7.004;2023-04-21T02:19:33;7.50;99.90
52565;DHT22;38460;53.106;7.004;2023-04-21T02:21:59;7.40;99.90
52565;DHT22;38460;53.106;7.004;2023-04-21T02:24:25;7.40;99.90
52565;DHT22;38460;53.106;7.004;2023-04-21T02:26:50;7.40;99.90
52565;DHT22;38460;53.106;7.004;2023-04-21T02:29:16;7.40;99.90
52565;DHT22;38460;53.106;7.004;2023-04-21T02:31:42;7.40;99.90
52565;DHT22;38460;53.106;7.004;2023-04-21T02:34:07;7.30;99.90
52565;DHT22;38460;53.106;7.004;2023-04-21T02:36:33;6.80;99.90
52565;DHT22;38460;53.106;7.004;2023-04-21T02:38:59;7.30;99.90
52565;DHT22;38460;53.106;7.004;2023-04-21T02:41:25;7.30;99.90
52565;DHT22;38460;53.106;7.004;2023-04-21T02:43:50;7.30;99.90
52565;DHT22;38460;53.106;7.004;2023-04-21T02:46:16;7.20;99.90
52565;DHT22;38460;53.106;7.004;2023-04-21T02:48:42;7.20;99.90
52565;DHT22;38460;53.106;7.004;2023-04-21T02:51:11;7.20;99.90
52565;DHT22;38460;53.106;7.004;2023-04-21T02:53:38;7.20;99.90
52565;DHT22;38460;53.106;7.004;2023-04-21T02:56:05;7.20;99.90
52565;DHT22;38460;53.106;7.004;2023-04-21T02:58:36;7.20;99.90
52565;DHT22;38460;53.106;7.004;2023-04-21T03:01:03;7.10;99.90
52565;DHT22;38460;53.106;7.004;2023-04-21T03:03:30;7.10;99.90
52565;DHT22;38460;53.106;7.004;2023-04-21T03:06:01;7.10;99.90
52565;DHT22;38460;53.106;7.004;2023-04-21T03:08:27;7.10;99.90
52565;DHT22;38460;53.106;7.004;2023-04-21T03:10:53;7.10;99.90
52565;DHT22;38460;53.106;7.004;2023-04-21T03:13:19;7.10;99.90
52565;DHT22;38460;53.106;7.004;2023-04-21T03:15:44;7.00;99.90
52565;DHT22;38460;53.106;7.004;2023-04-21T03:18:11;7.00;99.90
52565;DHT22;38460;53.106;7.004;2023-04-21T03:20:36;7.00;99.90
52565;DHT22;38460;53.106;7.004;2023-04-21T03:23:02;7.00;99.90
52565;DHT22;38460;53.106;7.004;2023-04-21T03:25:28;7.00;99.90
52565;DHT22;38460;53.106;7.004;2023-04-21T03:27:54;7.00;99.90
52565;DHT22;38460;53.106;7.004;2023-04-21T03:30:21;6.90;99.90
52565;DHT22;38460;53.106;7.004;2023-04-21T03:32:47;7.00;99.90
52565;DHT22;38460;53.106;7.004;2023-04-21T03:35:12;6.90;99.90
52565;DHT22;38460;53.106;7.004;2023-04-21T03:37:38;6.90;99.90
52565;DHT22;38460;53.106;7.004;2023-04-21T03:40:05;6.90;99.90
52565;DHT22;38460;53.106;7.004;2023-04-21T03:42:31;6.80;99.90
52565;DHT22;38460;53.106;7.004;2023-04-21T03:45:04;6.80;99.90
52565;DHT22;38460;53.106;7.004;2023-04-21T03:47:30;6.80;99.90
52565;DHT22;38460;53.106;7.004;2023-04-21T03:49:56;6.80;99.90
52565;DHT22;38460;53.106;7.004;2023-04-21T03:52:22;6.80;99.90
52565;DHT22;38460;53.106;7.004;2023-04-21T03:54:48;6.80;99.90
52565;DHT22;38460;53.106;7.004;2023-04-21T03:57:14;6.80;99.90
52565;DHT22;38460;53.106;7.004;2023-04-21T03:59:40;6.70;99.90
52565;DHT22;38460;53.106;7.004;2023-04-21T04:02:06;6.70;99.90
52565;DHT22;38460;53.106;7.004;2023-04-21T04:04:32;6.70;99.90
52565;DHT22;38460;53.106;7.004;2023-04-21T04:06:58;6.70;99.90
52565;DHT22;38460;53.106;7.004;2023-04-21T04:09:24;6.70;99.90
52565;DHT22;38460;53.106;7.004;2023-04-21T04:11:49;6.70;99.90
52565;DHT22;38460;53.106;7.004;2023-04-21T04:14:15;6.70;99.90
52565;DHT22;38460;53.106;7.004;2023-04-21T04:16:41;6.70;99.90
52565;DHT22;38460;53.106;7.004;2023-04-21T04:19:07;6.70;99.90
52565;DHT22;38460;53.106;7.004;2023-04-21T04:21:33;6.70;99.90
52565;DHT22;38460;53.106;7.004;2023-04-21T04:24:00;6.70;99.90
52565;DHT22;38460;53.106;7.004;2023-04-21T04:26:27;6.70;99.90
52565;DHT22;38460;53.106;7.004;2023-04-21T04:28:53;6.70;99.90
52565;DHT22;38460;53.106;7.004;2023-04-21T04:31:22;6.70;99.90
52565;DHT22;38460;53.106;7.004;2023-04-21T04:33:50;6.70;99.90
52565;DHT22;38460;53.106;7.004;2023-04-21T04:36:16;6.70;99.90
52565;DHT22;38460;53.106;7.004;2023-04-21T04:38:42;6.70;99.90
52565;DHT22;38460;53.106;7.004;2023-04-21T04:41:08;6.80;99.90
52565;DHT22;38460;53.106;7.004;2023-04-21T04:43:34;6.80;99.90
52565;DHT22;38460;53.106;7.004;2023-04-21T04:46:06;6.80;99.90
52565;DHT22;38460;53.106;7.004;2023-04-21T04:48:34;6.80;99.90
52565;DHT22;38460;53.106;7.004;2023-04-21T04:51:00;6.80;99.90
52565;DHT22;38460;53.106;7.004;2023-04-21T04:53:28;6.80;99.90
52565;DHT22;38460;53.106;7.004;2023-04-21T04:55:54;6.80;99.90
52565;DHT22;38460;53.106;7.004;2023-04-21T04:58:22;6.90;99.90
52565;DHT22;38460;53.106;7.004;2023-04-21T05:00:47;7.00;99.90
52565;DHT22;38460;53.106;7.004;2023-04-21T05:03:13;7.00;99.90
52565;DHT22;38460;53.106;7.004;2023-04-21T05:05:39;7.00;99.90
52565;DHT22;38460;53.106;7.004;2023-04-21T05:08:05;7.00;99.90
52565;DHT22;38460;53.106;7.004;2023-04-21T05:10:30;7.00;99.90
52565;DHT22;38460;53.106;7.004;2023-04-21T05:12:56;7.00;99.90
52565;DHT22;38460;53.106;7.004;2023-04-21T05:15:22;7.10;99.90
52565;DHT22;38460;53.106;7.004;2023-04-21T05:17:48;7.10;99.90
52565;DHT22;38460;53.106;7.004;2023-04-21T05:20:15;7.10;99.90
52565;DHT22;38460;53.106;7.004;2023-04-21T05:22:40;7.10;99.90
52565;DHT22;38460;53.106;7.004;2023-04-21T05:25:06;7.20;99.90
52565;DHT22;38460;53.106;7.004;2023-04-21T05:27:32;7.20;99.90
52565;DHT22;38460;53.106;7.004;2023-04-21T05:29:59;7.20;99.90
52565;DHT22;38460;53.106;7.004;2023-04-21T05:32:25;7.30;99.90
52565;DHT22;38460;53.106;7.004;2023-04-21T05:34:50;7.30;99.90
52565;DHT22;38460;53.106;7.004;2023-04-21T05:37:16;7.30;99.90
52565;DHT22;38460;53.106;7.004;2023-04-21T05:39:42;7.30;99.90
52565;DHT22;38460;53.106;7.004;2023-04-21T05:42:09;7.40;99.90
52565;DHT22;38460;53.106;7.004;2023-04-21T05:44:36;7.40;99.90
52565;DHT22;38460;53.106;7.004;2023-04-21T05:47:03;7.50;99.90
52565;DHT22;38460;53.106;7.004;2023-04-21T05:49:29;7.60;99.90
52565;DHT22;38460;53.106;7.004;2023-04-21T05:51:55;7.60;99.90
52565;DHT22;38460;53.106;7.004;2023-04-21T05:54:20;7.70;99.90
52565;DHT22;38460;53.106;7.004;2023-04-21T05:56:46;7.70;99.90
52565;DHT22;38460;53.106;7.004;2023-04-21T05:59:13;7.80;99.90
52565;DHT22;38460;53.106;7.004;2023-04-21T06:01:38;7.90;99.90
52565;DHT22;38460;53.106;7.004;2023-04-21T06:04:04;8.00;99.90
52565;DHT22;38460;53.106;7.004;2023-04-21T06:06:30;8.00;99.90
52565;DHT22;38460;53.106;7.004;2023-04-21T06:08:56;8.10;99.90
52565;DHT22;38460;53.106;7.004;2023-04-21T06:11:22;8.20;99.90
52565;DHT22;38460;53.106;7.004;2023-04-21T06:13:49;8.30;99.90
52565;DHT22;38460;53.106;7.004;2023-04-21T06:16:15;8.40;99.90
52565;DHT22;38460;53.106;7.004;2023-04-21T06:18:41;8.50;99.90
52565;DHT22;38460;53.106;7.004;2023-04-21T06:21:06;8.50;99.90
52565;DHT22;38460;53.106;7.004;2023-04-21T06:23:32;8.70;99.90
52565;DHT22;38460;53.106;7.004;2023-04-21T06:26:05;8.80;99.90
52565;DHT22;38460;53.106;7.004;2023-04-21T06:28:33;8.80;99.90
52565;DHT22;38460;53.106;7.004;2023-04-21T06:30:59;8.90;99.90
52565;DHT22;38460;53.106;7.004;2023-04-21T06:33:26;8.90;99.90
52565;DHT22;38460;53.106;7.004;2023-04-21T06:35:52;9.00;99.90
52565;DHT22;38460;53.106;7.004;2023-04-21T06:38:18;9.10;99.90
52565;DHT22;38460;53.106;7.004;2023-04-21T06:40:44;9.20;99.90
52565;DHT22;38460;53.106;7.004;2023-04-21T06:43:10;9.30;99.90
52565;DHT22;38460;53.106;7.004;2023-04-21T06:45:36;9.40;99.90
52565;DHT22;38460;53.106;7.004;2023-04-21T06:48:02;9.40;99.90
52565;DHT22;38460;53.106;7.004;2023-04-21T06:50:28;9.50;99.90
52565;DHT22;38460;53.106;7.004;2023-04-21T06:52:53;9.60;99.90
52565;DHT22;38460;53.106;7.004;2023-04-21T06:55:19;9.70;99.90
52565;DHT22;38460;53.106;7.004;2023-04-21T06:57:45;9.80;99.90
52565;DHT22;38460;53.106;7.004;2023-04-21T07:00:11;9.90;99.90
52565;DHT22;38460;53.106;7.004;2023-04-21T07:02:37;10.00;99.90
52565;DHT22;38460;53.106;7.004;2023-04-21T07:05:03;10.10;99.90
52565;DHT22;38460;53.106;7.004;2023-04-21T07:07:29;10.20;99.90
52565;DHT22;38460;53.106;7.004;2023-04-21T07:09:54;10.30;99.90
52565;DHT22;38460;53.106;7.004;2023-04-21T07:12:20;10.40;99.90
52565;DHT22;38460;53.106;7.004;2023-04-21T07:14:46;10.50;99.90
52565;DHT22;38460;53.106;7.004;2023-04-21T07:17:12;10.50;99.90
52565;DHT22;38460;53.106;7.004;2023-04-21T07:21:57;10.60;99.90
52565;DHT22;38460;53.106;7.004;2023-04-21T07:24:23;10.80;99.90
52565;DHT22;38460;53.106;7.004;2023-04-21T07:26:49;10.90;99.90
52565;DHT22;38460;53.106;7.004;2023-04-21T07:29:15;11.00;99.90
52565;DHT22;38460;53.106;7.004;2023-04-21T07:31:40;11.10;99.90
52565;DHT22;38460;53.106;7.004;2023-04-21T07:34:06;11.20;99.90
52565;DHT22;38460;53.106;7.004;2023-04-21T07:36:32;11.30;99.90
52565;DHT22;38460;53.106;7.004;2023-04-21T07:38:57;11.40;99.90
52565;DHT22;38460;53.106;7.004;2023-04-21T07:41:23;11.40;99.90
52565;DHT22;38460;53.106;7.004;2023-04-21T07:43:49;11.50;99.90
52565;DHT22;38460;53.106;7.004;2023-04-21T07:46:15;11.50;99.90
52565;DHT22;38460;53.106;7.004;2023-04-21T07:48:41;11.60;99.90
52565;DHT22;38460;53.106;7.004;2023-04-21T07:51:06;11.60;99.90
52565;DHT22;38460;53.106;7.004;2023-04-21T07:53:32;11.70;99.90
52565;DHT22;38460;53.106;7.004;2023-04-21T07:55:58;11.80;99.90
52565;DHT22;38460;53.106;7.004;2023-04-21T07:58:24;11.90;99.90
52565;DHT22;38460;53.106;7.004;2023-04-21T08:00:50;11.90;99.90
52565;DHT22;38460;53.106;7.004;2023-04-21T08:03:16;12.00;99.90
52565;DHT22;38460;53.106;7.004;2023-04-21T08:05:41;12.10;99.90
52565;DHT22;38460;53.106;7.004;2023-04-21T08:08:07;12.20;99.90
52565;DHT22;38460;53.106;7.004;2023-04-21T08:10:33;12.20;99.90
52565;DHT22;38460;53.106;7.004;2023-04-21T08:12:59;12.30;99.90
52565;DHT22;38460;53.106;7.004;2023-04-21T08:15:25;12.40;99.90
52565;DHT22;38460;53.106;7.004;2023-04-21T08:17:51;12.40;99.90
52565;DHT22;38460;53.106;7.004;2023-04-21T08:20:16;12.50;99.90
52565;DHT22;38460;53.106;7.004;2023-04-21T08:22:42;12.60;99.90
52565;DHT22;38460;53.106;7.004;2023-04-21T08:25:08;12.60;99.90
52565;DHT22;38460;53.106;7.004;2023-04-21T08:27:37;12.70;99.90
52565;DHT22;38460;53.106;7.004;2023-04-21T08:30:04;12.80;99.90
52565;DHT22;38460;53.106;7.004;2023-04-21T08:32:29;12.90;99.90
52565;DHT22;38460;53.106;7.004;2023-04-21T08:34:55;13.00;99.90
52565;DHT22;38460;53.106;7.004;2023-04-21T08:37:21;13.10;99.90
52565;DHT22;38460;53.106;7.004;2023-04-21T08:39:48;13.10;99.90
52565;DHT22;38460;53.106;7.004;2023-04-21T08:42:18;13.20;99.90
52565;DHT22;38460;53.106;7.004;2023-04-21T08:44:45;13.30;99.90
52565;DHT22;38460;53.106;7.004;2023-04-21T08:47:11;13.40;99.90
52565;DHT22;38460;53.106;7.004;2023-04-21T08:49:39;13.50;99.90
52565;DHT22;38460;53.106;7.004;2023-04-21T08:52:05;13.60;99.90
52565;DHT22;38460;53.106;7.004;2023-04-21T08:54:32;13.70;99.90
52565;DHT22;38460;53.106;7.004;2023-04-21T08:56:58;13.80;99.90
52565;DHT22;38460;53.106;7.004;2023-04-21T08:59:25;14.00;99.90
52565;DHT22;38460;53.106;7.004;2023-04-21T09:02:17;14.10;99.90
52565;DHT22;38460;53.106;7.004;2023-04-21T09:04:47;14.20;99.90
52565;DHT22;38460;53.106;7.004;2023-04-21T09:07:31;14.30;99.90
52565;DHT22;38460;53.106;7.004;2023-04-21T09:09:58;14.40;99.90
52565;DHT22;38460;53.106;7.004;2023-04-21T09:12:25;14.50;99.90
52565;DHT22;38460;53.106;7.004;2023-04-21T09:14:51;14.60;99.90
52565;DHT22;38460;53.106;7.004;2023-04-21T09:17:19;14.70;99.90
52565;DHT22;38460;53.106;7.004;2023-04-21T09:19:45;14.90;99.90
52565;DHT22;38460;53.106;7.004;2023-04-21T09:22:15;15.00;99.90
52565;DHT22;38460;53.106;7.004;2023-04-21T09:24:48;15.10;99.90
52565;DHT22;38460;53.106;7.004;2023-04-21T09:27:21;15.10;99.90
52565;DHT22;38460;53.106;7.004;2023-04-21T09:29:47;15.30;99.90
52565;DHT22;38460;53.106;7.004;2023-04-21T09:32:19;15.40;99.90
52565;DHT22;38460;53.106;7.004;2023-04-21T09:34:45;15.50;99.90
52565;DHT22;38460;53.106;7.004;2023-04-21T09:37:12;15.60;99.90
52565;DHT22;38460;53.106;7.004;2023-04-21T09:39:39;15.70;99.90
52565;DHT22;38460;53.106;7.004;2023-04-21T09:42:05;15.90;99.90
52565;DHT22;38460;53.106;7.004;2023-04-21T09:44:35;15.90;99.90
52565;DHT22;38460;53.106;7.004;2023-04-21T09:47:03;16.00;99.90
52565;DHT22;38460;53.106;7.004;2023-04-21T09:49:34;16.10;99.90
52565;DHT22;38460;53.106;7.004;2023-04-21T09:52:01;16.20;99.90
52565;DHT22;38460;53.106;7.004;2023-04-21T09:54:32;16.30;99.90
52565;DHT22;38460;53.106;7.004;2023-04-21T09:57:02;16.40;99.90
52565;DHT22;38460;53.106;7.004;2023-04-21T09:59:35;16.50;99.90
52565;DHT22;38460;53.106;7.004;2023-04-21T10:02:04;16.60;99.90
52565;DHT22;38460;53.106;7.004;2023-04-21T10:04:33;16.70;99.90
52565;DHT22;38460;53.106;7.004;2023-04-21T10:06:59;16.90;99.90
52565;DHT22;38460;53.106;7.004;2023-04-21T10:09:32;17.00;99.90
52565;DHT22;38460;53.106;7.004;2023-04-21T10:12:00;17.10;99.90
52565;DHT22;38460;53.106;7.004;2023-04-21T10:14:27;17.20;99.90
52565;DHT22;38460;53.106;7.004;2023-04-21T10:17:06;17.20;99.90
52565;DHT22;38460;53.106;7.004;2023-04-21T10:19:34;17.40;99.90
52565;DHT22;38460;53.106;7.004;2023-04-21T10:22:06;17.60;99.90
52565;DHT22;38460;53.106;7.004;2023-04-21T10:24:40;17.70;99.90
52565;DHT22;38460;53.106;7.004;2023-04-21T10:27:09;17.80;99.90
52565;DHT22;38460;53.106;7.004;2023-04-21T10:29:36;17.90;99.90
52565;DHT22;38460;53.106;7.004;2023-04-21T10:32:02;18.00;99.90
52565;DHT22;38460;53.106;7.004;2023-04-21T10:41:52;18.40;99.90
52565;DHT22;38460;53.106;7.004;2023-04-21T10:44:21;18.50;99.90
52565;DHT22;38460;53.106;7.004;2023-04-21T10:46:49;18.50;99.90
52565;DHT22;38460;53.106;7.004;2023-04-21T10:49:28;18.50;99.90
52565;DHT22;38460;53.106;7.004;2023-04-21T10:57:16;18.50;99.90
52565;DHT22;38460;53.106;7.004;2023-04-21T10:59:43;18.60;99.90
52565;DHT22;38460;53.106;7.004;2023-04-21T11:02:14;18.70;99.90
52565;DHT22;38460;53.106;7.004;2023-04-21T11:04:40;18.80;99.10
52565;DHT22;38460;53.106;7.004;2023-04-21T11:07:11;18.90;99.80
52565;DHT22;38460;53.106;7.004;2023-04-21T11:09:38;19.00;99.00
52565;DHT22;38460;53.106;7.004;2023-04-21T11:12:13;19.10;98.30
52565;DHT22;38460;53.106;7.004;2023-04-21T11:14:41;19.20;98.50
52565;DHT22;38460;53.106;7.004;2023-04-21T11:17:16;19.40;98.30
52565;DHT22;38460;53.106;7.004;2023-04-21T11:19:45;19.40;97.70
52565;DHT22;38460;53.106;7.004;2023-04-21T11:22:11;19.50;97.40
52565;DHT22;38460;53.106;7.004;2023-04-21T11:24:37;19.60;97.80
52565;DHT22;38460;53.106;7.004;2023-04-21T11:27:06;19.60;96.00
52565;DHT22;38460;53.106;7.004;2023-04-21T11:29:32;19.70;96.30
52565;DHT22;38460;53.106;7.004;2023-04-21T11:31:58;19.90;96.60
52565;DHT22;38460;53.106;7.004;2023-04-21T11:34:25;20.00;96.60
52565;DHT22;38460;53.106;7.004;2023-04-21T11:36:52;20.10;95.90
52565;DHT22;38460;53.106;7.004;2023-04-21T11:39:19;20.10;94.10
52565;DHT22;38460;53.106;7.004;2023-04-21T11:41:47;20.10;93.70
52565;DHT22;38460;53.106;7.004;2023-04-21T11:44:29;20.10;93.40
52565;DHT22;38460;53.106;7.004;2023-04-21T11:46:54;20.20;93.40
52565;DHT22;38460;53.106;7.004;2023-04-21T11:49:24;20.40;92.90
52565;DHT22;38460;53.106;7.004;2023-04-21T11:51:50;20.50;92.40
52565;DHT22;38460;53.106;7.004;2023-04-21T11:54:17;20.50;91.40
52565;DHT22;38460;53.106;7.004;2023-04-21T11:56:46;20.60;91.30
52565;DHT22;38460;53.106;7.004;2023-04-21T11:59:13;20.70;90.90
52565;DHT22;38460;53.106;7.004;2023-04-21T12:04:16;21.00;90.70
52565;DHT22;38460;53.106;7.004;2023-04-21T12:06:44;21.10;89.50
52565;DHT22;38460;53.106;7.004;2023-04-21T12:09:16;21.10;88.00
52565;DHT22;38460;53.106;7.004;2023-04-21T12:11:46;21.10;86.60
52565;DHT22;38460;53.106;7.004;2023-04-21T12:14:14;21.10;87.70
52565;DHT22;38460;53.106;7.004;2023-04-21T12:16:41;21.20;85.90
52565;DHT22;38460;53.106;7.004;2023-04-21T12:19:07;21.30;86.30
52565;DHT22;38460;53.106;7.004;2023-04-21T12:21:36;21.40;84.50
52565;DHT22;38460;53.106;7.004;2023-04-21T12:24:04;21.50;83.30
52565;DHT22;38460;53.106;7.004;2023-04-21T12:26:30;21.50;83.70
52565;DHT22;38460;53.106;7.004;2023-04-21T12:28:56;21.60;81.20
52565;DHT22;38460;53.106;7.004;2023-04-21T12:31:21;21.70;81.80
52565;DHT22;38460;53.106;7.004;2023-04-21T12:33:47;21.70;81.00
52565;DHT22;38460;53.106;7.004;2023-04-21T12:36:13;21.70;80.50
52565;DHT22;38460;53.106;7.004;2023-04-21T12:38:39;21.90;81.20
52565;DHT22;38460;53.106;7.004;2023-04-21T12:41:05;21.90;79.30
52565;DHT22;38460;53.106;7.004;2023-04-21T12:43:30;21.90;77.90
52565;DHT22;38460;53.106;7.004;2023-04-21T12:45:56;22.00;78.20
52565;DHT22;38460;53.106;7.004;2023-04-21T12:48:23;22.20;78.00
52565;DHT22;38460;53.106;7.004;2023-04-21T12:50:48;22.40;77.80
52565;DHT22;38460;53.106;7.004;2023-04-21T12:53:14;22.40;74.40
52565;DHT22;38460;53.106;7.004;2023-04-21T12:55:41;22.50;74.30
52565;DHT22;38460;53.106;7.004;2023-04-21T12:58:06;22.30;72.00
52565;DHT22;38460;53.106;7.004;2023-04-21T13:00:32;22.10;72.10
52565;DHT22;38460;53.106;7.004;2023-04-21T13:03:00;22.00;70.50
52565;DHT22;38460;53.106;7.004;2023-04-21T13:05:26;22.00;70.80
52565;DHT22;38460;53.106;7.004;2023-04-21T13:07:52;22.10;70.60
52565;DHT22;38460;53.106;7.004;2023-04-21T13:10:18;22.20;70.40
52565;DHT22;38460;53.106;7.004;2023-04-21T13:12:45;22.30;68.80
52565;DHT22;38460;53.106;7.004;2023-04-21T13:15:11;22.30;66.90
52565;DHT22;38460;53.106;7.004;2023-04-21T13:17:37;22.30;67.60
52565;DHT22;38460;53.106;7.004;2023-04-21T13:20:03;22.30;67.00
52565;DHT22;38460;53.106;7.004;2023-04-21T13:22:29;22.30;67.40
52565;DHT22;38460;53.106;7.004;2023-04-21T13:24:55;22.40;67.30
52565;DHT22;38460;53.106;7.004;2023-04-21T13:27:20;22.50;68.50
52565;DHT22;38460;53.106;7.004;2023-04-21T13:29:46;22.60;67.40
52565;DHT22;38460;53.106;7.004;2023-04-21T13:32:13;22.80;66.40
52565;DHT22;38460;53.106;7.004;2023-04-21T13:34:39;22.80;65.30
52565;DHT22;38460;53.106;7.004;2023-04-21T13:37:05;22.80;65.40
52565;DHT22;38460;53.106;7.004;2023-04-21T13:39:35;22.80;65.80
52565;DHT22;38460;53.106;7.004;2023-04-21T13:42:01;22.70;65.70
52565;DHT22;38460;53.106;7.004;2023-04-21T13:44:27;22.60;61.50
52565;DHT22;38460;53.106;7.004;2023-04-21T13:46:53;22.60;64.30
52565;DHT22;38460;53.106;7.004;2023-04-21T13:49:20;22.70;64.10
52565;DHT22;38460;53.106;7.004;2023-04-21T13:51:45;22.50;64.10
52565;DHT22;38460;53.106;7.004;2023-04-21T13:54:11;22.30;64.60
52565;DHT22;38460;53.106;7.004;2023-04-21T13:56:37;22.30;65.20
52565;DHT22;38460;53.106;7.004;2023-04-21T13:59:03;22.00;64.90
52565;DHT22;38460;53.106;7.004;2023-04-21T14:01:30;22.00;65.90
52565;DHT22;38460;53.106;7.004;2023-04-21T14:03:56;22.00;65.90
52565;DHT22;38460;53.106;7.004;2023-04-21T14:06:22;21.90;65.60
52565;DHT22;38460;53.106;7.004;2023-04-21T14:08:47;21.70;65.90
52565;DHT22;38460;53.106;7.004;2023-04-21T14:11:13;21.60;65.20
52565;DHT22;38460;53.106;7.004;2023-04-21T14:13:39;21.40;64.50
52565;DHT22;38460;53.106;7.004;2023-04-21T14:16:06;21.40;64.20
52565;DHT22;38460;53.106;7.004;2023-04-21T14:18:32;21.50;64.70
52565;DHT22;38460;53.106;7.004;2023-04-21T14:20:58;21.50;63.80
52565;DHT22;38460;53.106;7.004;2023-04-21T14:23:24;21.50;63.70
52565;DHT22;38460;53.106;7.004;2023-04-21T14:25:49;21.60;63.50
52565;DHT22;38460;53.106;7.004;2023-04-21T14:28:15;21.80;64.10
52565;DHT22;38460;53.106;7.004;2023-04-21T14:30:41;21.90;63.30
52565;DHT22;38460;53.106;7.004;2023-04-21T14:33:07;22.00;63.00
52565;DHT22;38460;53.106;7.004;2023-04-21T14:35:36;22.10;63.10
52565;DHT22;38460;53.106;7.004;2023-04-21T14:38:01;22.20;63.70
52565;DHT22;38460;53.106;7.004;2023-04-21T14:40:27;22.30;63.70
52565;DHT22;38460;53.106;7.004;2023-04-21T14:42:53;22.40;63.60
52565;DHT22;38460;53.106;7.004;2023-04-21T14:45:18;22.30;60.80
52565;DHT22;38460;53.106;7.004;2023-04-21T14:47:44;22.40;61.50
52565;DHT22;38460;53.106;7.004;2023-04-21T14:50:10;22.50;61.50
52565;DHT22;38460;53.106;7.004;2023-04-21T14:52:36;22.50;62.20
52565;DHT22;38460;53.106;7.004;2023-04-21T14:55:02;22.60;62.70
52565;DHT22;38460;53.106;7.004;2023-04-21T14:57:28;22.60;61.70
52565;DHT22;38460;53.106;7.004;2023-04-21T14:59:54;22.70;62.40
52565;DHT22;38460;53.106;7.004;2023-04-21T15:02:21;22.50;61.20
52565;DHT22;38460;53.106;7.004;2023-04-21T15:04:47;22.50;62.00
52565;DHT22;38460;53.106;7.004;2023-04-21T15:07:13;22.60;63.00
52565;DHT22;38460;53.106;7.004;2023-04-21T15:09:38;22.60;62.70
52565;DHT22;38460;53.106;7.004;2023-04-21T15:12:05;22.50;62.20
52565;DHT22;38460;53.106;7.004;2023-04-21T15:14:31;22.50;62.00
52565;DHT22;38460;53.106;7.004;2023-04-21T15:16:57;22.40;61.00
52565;DHT22;38460;53.106;7.004;2023-04-21T15:19:22;22.20;60.80
52565;DHT22;38460;53.106;7.004;2023-04-21T15:21:48;22.10;61.40
52565;DHT22;38460;53.106;7.004;2023-04-21T15:24:14;21.90;61.90
52565;DHT22;38460;53.106;7.004;2023-04-21T15:26:40;21.80;62.00
52565;DHT22;38460;53.106;7.004;2023-04-21T15:29:05;21.70;62.50
52565;DHT22;38460;53.106;7.004;2023-04-21T15:31:31;21.50;62.70
52565;DHT22;38460;53.106;7.004;2023-04-21T15:33:57;21.40;62.00
52565;DHT22;38460;53.106;7.004;2023-04-21T15:36:23;21.40;62.20
52565;DHT22;38460;53.106;7.004;2023-04-21T15:38:48;21.40;62.00
52565;DHT22;38460;53.106;7.004;2023-04-21T15:41:14;21.40;62.00
52565;DHT22;38460;53.106;7.004;2023-04-21T15:43:42;21.40;61.40
52565;DHT22;38460;53.106;7.004;2023-04-21T15:46:08;21.30;61.30
52565;DHT22;38460;53.106;7.004;2023-04-21T15:48:40;21.30;61.90
52565;DHT22;38460;53.106;7.004;2023-04-21T15:51:09;21.10;62.40